sensor_id;sensor_type;location;lat;lon;timestamp;P1;durP1;ratioP1;P2;durP2;ratioP2
73675;SDS011;61975;48.660;10.164;2023-06-14T00:00:19;6.55;;;3.83;;
73675;SDS011;61975;48.660;10.164;2023-06-14T00:02:45;6.30;;;3.37;;
73675;SDS011;61975;48.660;10.164;2023-06-14T00:05:10;6.60;;;3.43;;
73675;SDS011;61975;48.660;10.164;2023-06-14T00:07:37;9.38;;;3.85;;
73675;SDS011;61975;48.660;10.164;2023-06-14T00:10:07;8.85;;;3.70;;
73675;SDS011;61975;48.660;10.164;2023-06-14T00:12:34;7.65;;;3.65;;
73675;SDS011;61975;48.660;10.164;2023-06-14T00:15:00;6.90;;;3.50;;
73675;SDS011;61975;48.660;10.164;2023-06-14T00:17:29;9.13;;;3.73;;
73675;SDS011;61975;48.660;10.164;2023-06-14T00:19:57;9.13;;;3.63;;
73675;SDS011;61975;48.660;10.164;2023-06-14T00:22:23;6.85;;;3.78;;
73675;SDS011;61975;48.660;10.164;2023-06-14T00:24:55;5.88;;;3.42;;
73675;SDS011;61975;48.660;10.164;2023-06-14T00:27:21;6.20;;;3.47;;
73675;SDS011;61975;48.660;10.164;2023-06-14T00:29:46;8.20;;;3.80;;
73675;SDS011;61975;48.660;10.164;2023-06-14T00:32:12;7.80;;;3.57;;
73675;SDS011;61975;48.660;10.164;2023-06-14T00:34:37;7.33;;;3.50;;
73675;SDS011;61975;48.660;10.164;2023-06-14T00:37:02;6.00;;;3.30;;
73675;SDS011;61975;48.660;10.164;2023-06-14T00:39:28;7.73;;;3.80;;
73675;SDS011;61975;48.660;10.164;2023-06-14T00:41:53;6.60;;;3.60;;
73675;SDS011;61975;48.660;10.164;2023-06-14T00:44:19;8.82;;;3.75;;
73675;SDS011;61975;48.660;10.164;2023-06-14T00:46:45;6.57;;;3.77;;
73675;SDS011;61975;48.660;10.164;2023-06-14T00:49:11;7.60;;;4.00;;
73675;SDS011;61975;48.660;10.164;2023-06-14T00:51:40;10.47;;;3.97;;
73675;SDS011;61975;48.660;10.164;2023-06-14T00:54:06;8.00;;;4.10;;
73675;SDS011;61975;48.660;10.164;2023-06-14T00:56:31;8.40;;;3.87;;
73675;SDS011;61975;48.660;10.164;2023-06-14T00:58:57;7.38;;;3.83;;
73675;SDS011;61975;48.660;10.164;2023-06-14T01:01:23;6.10;;;3.73;;
73675;SDS011;61975;48.660;10.164;2023-06-14T01:03:49;8.45;;;4.18;;
73675;SDS011;61975;48.660;10.164;2023-06-14T01:12:09;7.60;;;4.10;;
73675;SDS011;61975;48.660;10.164;2023-06-14T01:14:39;10.00;;;3.83;;
73675;SDS011;61975;48.660;10.164;2023-06-14T01:17:06;6.78;;;3.28;;
73675;SDS011;61975;48.660;10.164;2023-06-14T01:19:40;6.90;;;3.75;;
73675;SDS011;61975;48.660;10.164;2023-06-14T01:22:07;8.10;;;3.80;;
73675;SDS011;61975;48.660;10.164;2023-06-14T01:24:33;7.20;;;3.83;;
73675;SDS011;61975;48.660;10.164;2023-06-14T01:26:59;6.95;;;3.90;;
73675;SDS011;61975;48.660;10.164;2023-06-14T01:29:25;7.88;;;3.92;;
73675;SDS011;61975;48.660;10.164;2023-06-14T01:31:53;9.25;;;3.95;;
73675;SDS011;61975;48.660;10.164;2023-06-14T01:34:19;8.63;;;3.97;;
73675;SDS011;61975;48.660;10.164;2023-06-14T01:36:45;6.88;;;3.58;;
73675;SDS011;61975;48.660;10.164;2023-06-14T01:39:12;9.30;;;3.80;;
73675;SDS011;61975;48.660;10.164;2023-06-14T01:41:40;10.07;;;4.00;;
73675;SDS011;61975;48.660;10.164;2023-06-14T01:44:06;9.70;;;4.20;;
73675;SDS011;61975;48.660;10.164;2023-06-14T01:46:32;7.15;;;4.18;;
73675;SDS011;61975;48.660;10.164;2023-06-14T01:48:57;7.33;;;3.63;;
73675;SDS011;61975;48.660;10.164;2023-06-14T01:51:23;6.68;;;3.70;;
73675;SDS011;61975;48.660;10.164;2023-06-14T01:53:49;6.57;;;3.80;;
73675;SDS011;61975;48.660;10.164;2023-06-14T01:56:15;10.27;;;4.30;;
73675;SDS011;61975;48.660;10.164;2023-06-14T01:58:41;9.13;;;3.93;;
73675;SDS011;61975;48.660;10.164;2023-06-14T02:01:06;7.82;;;3.90;;
73675;SDS011;61975;48.660;10.164;2023-06-14T02:03:32;9.30;;;3.73;;
73675;SDS011;61975;48.660;10.164;2023-06-14T02:05:57;9.87;;;4.00;;
73675;SDS011;61975;48.660;10.164;2023-06-14T02:08:23;7.03;;;4.00;;
73675;SDS011;61975;48.660;10.164;2023-06-14T02:10:49;6.97;;;4.03;;
73675;SDS011;61975;48.660;10.164;2023-06-14T02:13:14;10.17;;;3.80;;
73675;SDS011;61975;48.660;10.164;2023-06-14T02:15:39;6.80;;;3.80;;
73675;SDS011;61975;48.660;10.164;2023-06-14T02:18:08;7.65;;;3.85;;
73675;SDS011;61975;48.660;10.164;2023-06-14T02:20:35;9.50;;;3.97;;
73675;SDS011;61975;48.660;10.164;2023-06-14T02:23:00;9.15;;;3.67;;
73675;SDS011;61975;48.660;10.164;2023-06-14T02:25:26;9.80;;;4.00;;
73675;SDS011;61975;48.660;10.164;2023-06-14T02:27:55;6.40;;;3.67;;
73675;SDS011;61975;48.660;10.164;2023-06-14T02:30:20;7.25;;;3.60;;
73675;SDS011;61975;48.660;10.164;2023-06-14T02:32:46;6.33;;;3.70;;
73675;SDS011;61975;48.660;10.164;2023-06-14T02:35:13;9.35;;;4.15;;
73675;SDS011;61975;48.660;10.164;2023-06-14T02:37:39;5.82;;;3.38;;
73675;SDS011;61975;48.660;10.164;2023-06-14T02:40:05;7.20;;;3.67;;
73675;SDS011;61975;48.660;10.164;2023-06-14T02:42:31;7.20;;;3.67;;
73675;SDS011;61975;48.660;10.164;2023-06-14T02:44:56;7.23;;;4.10;;
73675;SDS011;61975;48.660;10.164;2023-06-14T02:47:22;7.87;;;3.90;;
73675;SDS011;61975;48.660;10.164;2023-06-14T02:49:48;7.60;;;4.30;;
73675;SDS011;61975;48.660;10.164;2023-06-14T02:52:13;8.50;;;4.33;;
73675;SDS011;61975;48.660;10.164;2023-06-14T02:54:39;8.90;;;4.22;;
73675;SDS011;61975;48.660;10.164;2023-06-14T02:57:05;10.05;;;4.05;;
73675;SDS011;61975;48.660;10.164;2023-06-14T02:59:32;7.43;;;3.93;;
73675;SDS011;61975;48.660;10.164;2023-06-14T03:01:58;7.93;;;4.00;;
73675;SDS011;61975;48.660;10.164;2023-06-14T03:04:23;6.80;;;3.80;;
73675;SDS011;61975;48.660;10.164;2023-06-14T03:06:50;7.85;;;3.85;;
73675;SDS011;61975;48.660;10.164;2023-06-14T03:09:16;6.80;;;4.00;;
73675;SDS011;61975;48.660;10.164;2023-06-14T03:11:42;8.67;;;3.90;;
73675;SDS011;61975;48.660;10.164;2023-06-14T03:14:07;7.03;;;3.93;;
73675;SDS011;61975;48.660;10.164;2023-06-14T03:16:33;7.60;;;4.15;;
73675;SDS011;61975;48.660;10.164;2023-06-14T03:18:59;7.77;;;4.30;;
73675;SDS011;61975;48.660;10.164;2023-06-14T03:21:24;11.30;;;6.63;;
73675;SDS011;61975;48.660;10.164;2023-06-14T03:23:50;9.98;;;5.25;;
73675;SDS011;61975;48.660;10.164;2023-06-14T03:26:17;10.03;;;4.23;;
73675;SDS011;61975;48.660;10.164;2023-06-14T03:28:46;7.10;;;4.20;;
73675;SDS011;61975;48.660;10.164;2023-06-14T03:31:12;7.57;;;4.15;;
73675;SDS011;61975;48.660;10.164;2023-06-14T03:33:38;7.43;;;4.13;;
73675;SDS011;61975;48.660;10.164;2023-06-14T03:36:05;6.78;;;3.80;;
73675;SDS011;61975;48.660;10.164;2023-06-14T03:38:31;7.40;;;3.97;;
73675;SDS011;61975;48.660;10.164;2023-06-14T03:40:57;7.30;;;4.20;;
73675;SDS011;61975;48.660;10.164;2023-06-14T03:43:22;7.82;;;3.85;;
73675;SDS011;61975;48.660;10.164;2023-06-14T03:45:48;8.07;;;4.00;;
73675;SDS011;61975;48.660;10.164;2023-06-14T03:48:14;9.07;;;3.77;;
73675;SDS011;61975;48.660;10.164;2023-06-14T03:50:39;7.32;;;3.90;;
73675;SDS011;61975;48.660;10.164;2023-06-14T03:53:05;6.40;;;4.00;;
73675;SDS011;61975;48.660;10.164;2023-06-14T03:55:31;9.63;;;4.47;;
73675;SDS011;61975;48.660;10.164;2023-06-14T03:57:58;8.32;;;4.05;;
73675;SDS011;61975;48.660;10.164;2023-06-14T04:00:23;7.63;;;3.67;;
73675;SDS011;61975;48.660;10.164;2023-06-14T04:02:49;7.27;;;4.00;;
73675;SDS011;61975;48.660;10.164;2023-06-14T04:05:14;7.85;;;3.92;;
73675;SDS011;61975;48.660;10.164;2023-06-14T04:07:41;10.13;;;4.30;;
73675;SDS011;61975;48.660;10.164;2023-06-14T04:10:10;6.97;;;3.97;;
73675;SDS011;61975;48.660;10.164;2023-06-14T04:12:39;8.30;;;4.35;;
73675;SDS011;61975;48.660;10.164;2023-06-14T04:15:05;8.27;;;3.85;;
73675;SDS011;61975;48.660;10.164;2023-06-14T04:17:31;8.50;;;4.07;;
73675;SDS011;61975;48.660;10.164;2023-06-14T04:20:00;7.15;;;4.05;;
73675;SDS011;61975;48.660;10.164;2023-06-14T04:22:27;6.47;;;3.75;;
73675;SDS011;61975;48.660;10.164;2023-06-14T04:24:53;9.57;;;4.20;;
73675;SDS011;61975;48.660;10.164;2023-06-14T04:27:21;9.27;;;4.20;;
73675;SDS011;61975;48.660;10.164;2023-06-14T04:29:54;8.02;;;3.85;;
73675;SDS011;61975;48.660;10.164;2023-06-14T04:32:24;7.70;;;3.92;;
73675;SDS011;61975;48.660;10.164;2023-06-14T04:34:54;9.13;;;4.40;;
73675;SDS011;61975;48.660;10.164;2023-06-14T04:37:23;11.97;;;4.63;;
73675;SDS011;61975;48.660;10.164;2023-06-14T04:39:48;7.45;;;4.07;;
73675;SDS011;61975;48.660;10.164;2023-06-14T04:42:15;8.35;;;3.90;;
73675;SDS011;61975;48.660;10.164;2023-06-14T04:44:41;9.15;;;3.88;;
73675;SDS011;61975;48.660;10.164;2023-06-14T04:47:08;7.30;;;4.20;;
73675;SDS011;61975;48.660;10.164;2023-06-14T04:49:37;7.35;;;4.03;;
73675;SDS011;61975;48.660;10.164;2023-06-14T04:52:05;8.57;;;4.07;;
73675;SDS011;61975;48.660;10.164;2023-06-14T04:54:31;7.70;;;3.80;;
73675;SDS011;61975;48.660;10.164;2023-06-14T04:57:02;8.03;;;4.40;;
73675;SDS011;61975;48.660;10.164;2023-06-14T04:59:29;9.38;;;4.13;;
73675;SDS011;61975;48.660;10.164;2023-06-14T05:01:58;8.55;;;4.22;;
73675;SDS011;61975;48.660;10.164;2023-06-14T05:04:24;6.10;;;4.05;;
73675;SDS011;61975;48.660;10.164;2023-06-14T05:06:52;8.45;;;4.70;;
73675;SDS011;61975;48.660;10.164;2023-06-14T05:09:19;8.33;;;4.30;;
73675;SDS011;61975;48.660;10.164;2023-06-14T05:11:45;7.78;;;4.32;;
73675;SDS011;61975;48.660;10.164;2023-06-14T05:14:12;8.40;;;4.20;;
73675;SDS011;61975;48.660;10.164;2023-06-14T05:16:38;7.60;;;4.22;;
73675;SDS011;61975;48.660;10.164;2023-06-14T05:19:04;7.77;;;4.30;;
73675;SDS011;61975;48.660;10.164;2023-06-14T05:21:30;8.55;;;4.30;;
73675;SDS011;61975;48.660;10.164;2023-06-14T05:23:56;8.55;;;4.10;;
73675;SDS011;61975;48.660;10.164;2023-06-14T05:26:22;8.90;;;4.53;;
73675;SDS011;61975;48.660;10.164;2023-06-14T05:28:54;8.15;;;4.35;;
73675;SDS011;61975;48.660;10.164;2023-06-14T05:31:21;8.50;;;4.55;;
73675;SDS011;61975;48.660;10.164;2023-06-14T05:33:49;7.07;;;4.27;;
73675;SDS011;61975;48.660;10.164;2023-06-14T05:36:15;8.30;;;4.78;;
73675;SDS011;61975;48.660;10.164;2023-06-14T05:38:40;8.60;;;4.45;;
73675;SDS011;61975;48.660;10.164;2023-06-14T05:41:06;8.67;;;4.30;;
73675;SDS011;61975;48.660;10.164;2023-06-14T05:43:31;8.37;;;4.50;;
73675;SDS011;61975;48.660;10.164;2023-06-14T05:45:56;9.37;;;4.30;;
73675;SDS011;61975;48.660;10.164;2023-06-14T05:48:22;9.43;;;4.50;;
73675;SDS011;61975;48.660;10.164;2023-06-14T05:50:47;8.65;;;4.70;;
73675;SDS011;61975;48.660;10.164;2023-06-14T05:53:13;7.80;;;4.23;;
73675;SDS011;61975;48.660;10.164;2023-06-14T05:55:38;11.67;;;4.40;;
73675;SDS011;61975;48.660;10.164;2023-06-14T05:58:03;7.97;;;4.40;;
73675;SDS011;61975;48.660;10.164;2023-06-14T06:00:29;8.57;;;4.40;;
73675;SDS011;61975;48.660;10.164;2023-06-14T06:02:54;7.95;;;4.45;;
73675;SDS011;61975;48.660;10.164;2023-06-14T06:05:22;9.00;;;4.57;;
73675;SDS011;61975;48.660;10.164;2023-06-14T06:07:48;7.05;;;4.30;;
73675;SDS011;61975;48.660;10.164;2023-06-14T06:10:14;7.25;;;4.20;;
73675;SDS011;61975;48.660;10.164;2023-06-14T06:12:41;6.53;;;3.80;;
73675;SDS011;61975;48.660;10.164;2023-06-14T06:15:06;7.07;;;4.10;;
73675;SDS011;61975;48.660;10.164;2023-06-14T06:17:32;9.48;;;4.45;;
73675;SDS011;61975;48.660;10.164;2023-06-14T06:19:58;6.50;;;3.93;;
73675;SDS011;61975;48.660;10.164;2023-06-14T06:22:23;9.70;;;4.30;;
73675;SDS011;61975;48.660;10.164;2023-06-14T06:24:49;7.72;;;4.25;;
73675;SDS011;61975;48.660;10.164;2023-06-14T06:27:15;7.77;;;4.30;;
73675;SDS011;61975;48.660;10.164;2023-06-14T06:29:41;8.63;;;4.60;;
73675;SDS011;61975;48.660;10.164;2023-06-14T06:32:08;7.10;;;4.53;;
73675;SDS011;61975;48.660;10.164;2023-06-14T06:34:33;10.73;;;3.95;;
73675;SDS011;61975;48.660;10.164;2023-06-14T06:37:00;9.33;;;4.37;;
73675;SDS011;61975;48.660;10.164;2023-06-14T06:39:26;6.50;;;3.80;;
73675;SDS011;61975;48.660;10.164;2023-06-14T06:41:51;6.47;;;3.70;;
73675;SDS011;61975;48.660;10.164;2023-06-14T06:44:17;7.67;;;3.60;;
73675;SDS011;61975;48.660;10.164;2023-06-14T06:46:43;7.10;;;3.53;;
73675;SDS011;61975;48.660;10.164;2023-06-14T06:49:08;6.40;;;3.65;;
73675;SDS011;61975;48.660;10.164;2023-06-14T06:51:36;8.85;;;3.45;;
73675;SDS011;61975;48.660;10.164;2023-06-14T06:54:02;6.40;;;3.40;;
73675;SDS011;61975;48.660;10.164;2023-06-14T06:56:28;5.32;;;3.17;;
73675;SDS011;61975;48.660;10.164;2023-06-14T06:58:53;6.03;;;3.20;;
73675;SDS011;61975;48.660;10.164;2023-06-14T07:01:19;6.60;;;3.40;;
73675;SDS011;61975;48.660;10.164;2023-06-14T07:03:45;6.35;;;3.60;;
73675;SDS011;61975;48.660;10.164;2023-06-14T07:06:11;5.53;;;3.23;;
73675;SDS011;61975;48.660;10.164;2023-06-14T07:08:36;5.65;;;3.58;;
73675;SDS011;61975;48.660;10.164;2023-06-14T07:11:04;8.02;;;3.47;;
73675;SDS011;61975;48.660;10.164;2023-06-14T07:13:30;6.70;;;3.30;;
73675;SDS011;61975;48.660;10.164;2023-06-14T07:15:59;6.07;;;3.07;;
73675;SDS011;61975;48.660;10.164;2023-06-14T07:18:25;6.63;;;3.90;;
73675;SDS011;61975;48.660;10.164;2023-06-14T07:20:52;6.75;;;3.80;;
73675;SDS011;61975;48.660;10.164;2023-06-14T07:23:19;5.85;;;3.40;;
73675;SDS011;61975;48.660;10.164;2023-06-14T07:25:45;5.63;;;3.42;;
73675;SDS011;61975;48.660;10.164;2023-06-14T07:28:10;5.97;;;3.60;;
73675;SDS011;61975;48.660;10.164;2023-06-14T07:30:35;5.73;;;3.50;;
73675;SDS011;61975;48.660;10.164;2023-06-14T07:33:01;6.73;;;3.27;;
73675;SDS011;61975;48.660;10.164;2023-06-14T07:35:26;5.50;;;3.47;;
73675;SDS011;61975;48.660;10.164;2023-06-14T07:37:52;5.67;;;3.53;;
73675;SDS011;61975;48.660;10.164;2023-06-14T07:40:17;5.87;;;3.63;;
73675;SDS011;61975;48.660;10.164;2023-06-14T07:42:43;5.65;;;3.60;;
73675;SDS011;61975;48.660;10.164;2023-06-14T07:45:08;6.03;;;3.37;;
73675;SDS011;61975;48.660;10.164;2023-06-14T07:47:34;6.20;;;3.47;;
73675;SDS011;61975;48.660;10.164;2023-06-14T07:50:00;6.40;;;3.37;;
73675;SDS011;61975;48.660;10.164;2023-06-14T07:52:25;5.73;;;3.43;;
73675;SDS011;61975;48.660;10.164;2023-06-14T07:54:50;5.50;;;3.33;;
73675;SDS011;61975;48.660;10.164;2023-06-14T07:57:16;6.82;;;3.78;;
73675;SDS011;61975;48.660;10.164;2023-06-14T07:59:41;6.77;;;3.70;;
73675;SDS011;61975;48.660;10.164;2023-06-14T08:02:07;7.13;;;3.50;;
73675;SDS011;61975;48.660;10.164;2023-06-14T08:04:32;6.13;;;3.30;;
73675;SDS011;61975;48.660;10.164;2023-06-14T08:06:58;7.10;;;3.40;;
73675;SDS011;61975;48.660;10.164;2023-06-14T08:09:27;5.68;;;3.22;;
73675;SDS011;61975;48.660;10.164;2023-06-14T08:11:54;5.77;;;3.50;;
73675;SDS011;61975;48.660;10.164;2023-06-14T08:14:19;5.70;;;3.63;;
73675;SDS011;61975;48.660;10.164;2023-06-14T08:16:45;6.00;;;3.40;;
73675;SDS011;61975;48.660;10.164;2023-06-14T08:19:10;6.13;;;3.20;;
73675;SDS011;61975;48.660;10.164;2023-06-14T08:21:36;9.10;;;3.97;;
73675;SDS011;61975;48.660;10.164;2023-06-14T08:24:01;5.73;;;3.03;;
73675;SDS011;61975;48.660;10.164;2023-06-14T08:26:27;6.75;;;3.60;;
73675;SDS011;61975;48.660;10.164;2023-06-14T08:28:57;5.13;;;2.93;;
73675;SDS011;61975;48.660;10.164;2023-06-14T08:31:23;5.50;;;3.05;;
73675;SDS011;61975;48.660;10.164;2023-06-14T08:33:49;5.78;;;3.40;;
73675;SDS011;61975;48.660;10.164;2023-06-14T08:36:15;6.00;;;3.40;;
73675;SDS011;61975;48.660;10.164;2023-06-14T08:38:40;7.32;;;3.40;;
73675;SDS011;61975;48.660;10.164;2023-06-14T08:41:06;5.27;;;3.07;;
73675;SDS011;61975;48.660;10.164;2023-06-14T08:43:33;6.53;;;3.63;;
73675;SDS011;61975;48.660;10.164;2023-06-14T08:46:00;6.23;;;3.10;;
73675;SDS011;61975;48.660;10.164;2023-06-14T08:48:27;4.88;;;2.95;;
73675;SDS011;61975;48.660;10.164;2023-06-14T08:50:56;6.20;;;3.07;;
73675;SDS011;61975;48.660;10.164;2023-06-14T08:53:27;5.80;;;3.08;;
73675;SDS011;61975;48.660;10.164;2023-06-14T08:55:56;5.40;;;3.30;;
73675;SDS011;61975;48.660;10.164;2023-06-14T08:58:25;5.13;;;3.22;;
73675;SDS011;61975;48.660;10.164;2023-06-14T09:00:50;6.00;;;3.10;;
73675;SDS011;61975;48.660;10.164;2023-06-14T09:03:17;6.07;;;3.25;;
73675;SDS011;61975;48.660;10.164;2023-06-14T09:05:45;6.38;;;3.35;;
73675;SDS011;61975;48.660;10.164;2023-06-14T09:08:11;6.83;;;3.50;;
73675;SDS011;61975;48.660;10.164;2023-06-14T09:10:36;6.43;;;3.37;;
73675;SDS011;61975;48.660;10.164;2023-06-14T09:13:02;6.68;;;3.30;;
73675;SDS011;61975;48.660;10.164;2023-06-14T09:15:29;5.85;;;3.53;;
73675;SDS011;61975;48.660;10.164;2023-06-14T09:17:55;5.30;;;3.30;;
73675;SDS011;61975;48.660;10.164;2023-06-14T09:20:21;5.70;;;3.15;;
73675;SDS011;61975;48.660;10.164;2023-06-14T09:22:49;4.80;;;3.20;;
73675;SDS011;61975;48.660;10.164;2023-06-14T09:25:15;5.32;;;3.13;;
73675;SDS011;61975;48.660;10.164;2023-06-14T09:27:41;5.65;;;3.20;;
73675;SDS011;61975;48.660;10.164;2023-06-14T09:30:08;5.00;;;3.10;;
73675;SDS011;61975;48.660;10.164;2023-06-14T09:32:41;6.38;;;2.85;;
73675;SDS011;61975;48.660;10.164;2023-06-14T09:35:06;5.70;;;2.92;;
73675;SDS011;61975;48.660;10.164;2023-06-14T09:37:32;5.83;;;2.90;;
73675;SDS011;61975;48.660;10.164;2023-06-14T09:39:59;5.93;;;3.10;;
73675;SDS011;61975;48.660;10.164;2023-06-14T09:42:25;6.95;;;3.00;;
73675;SDS011;61975;48.660;10.164;2023-06-14T09:44:52;4.73;;;2.90;;
73675;SDS011;61975;48.660;10.164;2023-06-14T09:47:19;4.78;;;2.75;;
73675;SDS011;61975;48.660;10.164;2023-06-14T09:49:45;4.80;;;2.70;;
73675;SDS011;61975;48.660;10.164;2023-06-14T09:52:14;5.87;;;2.70;;
73675;SDS011;61975;48.660;10.164;2023-06-14T09:54:43;5.00;;;2.70;;
73675;SDS011;61975;48.660;10.164;2023-06-14T09:57:11;13.40;;;3.00;;
73675;SDS011;61975;48.660;10.164;2023-06-14T09:59:37;8.52;;;3.05;;
73675;SDS011;61975;48.660;10.164;2023-06-14T10:02:08;8.98;;;3.05;;
73675;SDS011;61975;48.660;10.164;2023-06-14T10:04:37;6.43;;;3.20;;
73675;SDS011;61975;48.660;10.164;2023-06-14T10:07:11;6.18;;;3.15;;
73675;SDS011;61975;48.660;10.164;2023-06-14T10:09:43;6.50;;;3.05;;
73675;SDS011;61975;48.660;10.164;2023-06-14T10:12:15;8.07;;;3.38;;
73675;SDS011;61975;48.660;10.164;2023-06-14T10:14:46;6.65;;;3.15;;
73675;SDS011;61975;48.660;10.164;2023-06-14T10:17:46;5.30;;;2.93;;
73675;SDS011;61975;48.660;10.164;2023-06-14T10:23:08;4.88;;;3.08;;
73675;SDS011;61975;48.660;10.164;2023-06-14T10:25:38;5.97;;;3.20;;
73675;SDS011;61975;48.660;10.164;2023-06-14T10:28:16;5.53;;;3.17;;
73675;SDS011;61975;48.660;10.164;2023-06-14T10:31:05;6.72;;;3.08;;
73675;SDS011;61975;48.660;10.164;2023-06-14T10:33:32;5.05;;;2.95;;
73675;SDS011;61975;48.660;10.164;2023-06-14T10:38:38;6.63;;;3.15;;
73675;SDS011;61975;48.660;10.164;2023-06-14T10:41:04;5.33;;;3.20;;
73675;SDS011;61975;48.660;10.164;2023-06-14T10:43:30;6.68;;;3.38;;
73675;SDS011;61975;48.660;10.164;2023-06-14T10:46:15;5.10;;;2.80;;
73675;SDS011;61975;48.660;10.164;2023-06-14T10:48:43;5.40;;;3.13;;
73675;SDS011;61975;48.660;10.164;2023-06-14T10:51:19;5.88;;;3.13;;
73675;SDS011;61975;48.660;10.164;2023-06-14T10:53:46;4.70;;;2.88;;
73675;SDS011;61975;48.660;10.164;2023-06-14T10:56:22;4.90;;;2.83;;
73675;SDS011;61975;48.660;10.164;2023-06-14T10:58:52;5.43;;;3.22;;
73675;SDS011;61975;48.660;10.164;2023-06-14T11:01:23;5.03;;;2.87;;
73675;SDS011;61975;48.660;10.164;2023-06-14T11:04:06;7.18;;;3.65;;
73675;SDS011;61975;48.660;10.164;2023-06-14T11:06:44;5.20;;;3.07;;
73675;SDS011;61975;48.660;10.164;2023-06-14T11:09:20;5.40;;;3.08;;
73675;SDS011;61975;48.660;10.164;2023-06-14T11:11:48;5.10;;;2.97;;
73675;SDS011;61975;48.660;10.164;2023-06-14T11:14:16;4.55;;;2.85;;
73675;SDS011;61975;48.660;10.164;2023-06-14T11:16:47;5.22;;;3.30;;
73675;SDS011;61975;48.660;10.164;2023-06-14T11:19:13;5.93;;;3.30;;
73675;SDS011;61975;48.660;10.164;2023-06-14T11:21:41;4.70;;;3.10;;
73675;SDS011;61975;48.660;10.164;2023-06-14T11:24:09;4.88;;;3.08;;
73675;SDS011;61975;48.660;10.164;2023-06-14T11:26:37;4.77;;;3.13;;
73675;SDS011;61975;48.660;10.164;2023-06-14T11:29:03;5.72;;;3.20;;
73675;SDS011;61975;48.660;10.164;2023-06-14T11:31:29;5.68;;;2.80;;
73675;SDS011;61975;48.660;10.164;2023-06-14T11:33:55;4.73;;;3.00;;
73675;SDS011;61975;48.660;10.164;2023-06-14T11:36:28;5.53;;;3.00;;
73675;SDS011;61975;48.660;10.164;2023-06-14T11:38:58;5.53;;;3.20;;
73675;SDS011;61975;48.660;10.164;2023-06-14T11:41:36;5.30;;;3.25;;
73675;SDS011;61975;48.660;10.164;2023-06-14T11:44:02;6.00;;;2.88;;
73675;SDS011;61975;48.660;10.164;2023-06-14T11:46:28;5.77;;;3.07;;
73675;SDS011;61975;48.660;10.164;2023-06-14T11:48:54;4.95;;;3.00;;
73675;SDS011;61975;48.660;10.164;2023-06-14T11:51:19;4.07;;;2.70;;
73675;SDS011;61975;48.660;10.164;2023-06-14T11:53:45;5.55;;;3.08;;
73675;SDS011;61975;48.660;10.164;2023-06-14T11:56:11;6.30;;;3.17;;
73675;SDS011;61975;48.660;10.164;2023-06-14T11:58:37;4.97;;;2.97;;
73675;SDS011;61975;48.660;10.164;2023-06-14T12:01:03;4.85;;;3.17;;
73675;SDS011;61975;48.660;10.164;2023-06-14T12:03:29;4.63;;;2.87;;
73675;SDS011;61975;48.660;10.164;2023-06-14T12:06:07;6.28;;;3.03;;
73675;SDS011;61975;48.660;10.164;2023-06-14T12:08:36;5.17;;;3.20;;
73675;SDS011;61975;48.660;10.164;2023-06-14T12:11:06;4.60;;;3.00;;
73675;SDS011;61975;48.660;10.164;2023-06-14T12:13:37;4.82;;;3.13;;
73675;SDS011;61975;48.660;10.164;2023-06-14T12:16:04;5.60;;;2.53;;
73675;SDS011;61975;48.660;10.164;2023-06-14T12:18:33;5.63;;;3.10;;
73675;SDS011;61975;48.660;10.164;2023-06-14T12:21:09;6.22;;;3.15;;
73675;SDS011;61975;48.660;10.164;2023-06-14T12:23:53;5.10;;;2.88;;
73675;SDS011;61975;48.660;10.164;2023-06-14T12:26:19;5.50;;;3.13;;
73675;SDS011;61975;48.660;10.164;2023-06-14T12:28:45;7.57;;;3.10;;
73675;SDS011;61975;48.660;10.164;2023-06-14T12:31:12;4.93;;;3.10;;
73675;SDS011;61975;48.660;10.164;2023-06-14T12:33:39;5.35;;;3.00;;
73675;SDS011;61975;48.660;10.164;2023-06-14T12:36:06;5.30;;;3.10;;
73675;SDS011;61975;48.660;10.164;2023-06-14T12:38:32;4.70;;;3.10;;
73675;SDS011;61975;48.660;10.164;2023-06-14T12:40:58;6.97;;;3.20;;
73675;SDS011;61975;48.660;10.164;2023-06-14T12:43:24;4.75;;;3.22;;
73675;SDS011;61975;48.660;10.164;2023-06-14T12:45:49;4.83;;;3.30;;
73675;SDS011;61975;48.660;10.164;2023-06-14T12:48:14;5.50;;;3.03;;
73675;SDS011;61975;48.660;10.164;2023-06-14T12:50:40;5.30;;;3.10;;
73675;SDS011;61975;48.660;10.164;2023-06-14T12:53:06;6.30;;;3.40;;
73675;SDS011;61975;48.660;10.164;2023-06-14T12:55:32;4.77;;;3.13;;
73675;SDS011;61975;48.660;10.164;2023-06-14T12:57:58;4.93;;;2.92;;
73675;SDS011;61975;48.660;10.164;2023-06-14T13:00:23;5.67;;;3.07;;
73675;SDS011;61975;48.660;10.164;2023-06-14T13:02:51;4.97;;;3.15;;
73675;SDS011;61975;48.660;10.164;2023-06-14T13:05:17;5.88;;;3.40;;
73675;SDS011;61975;48.660;10.164;2023-06-14T13:07:42;5.18;;;3.30;;
73675;SDS011;61975;48.660;10.164;2023-06-14T13:10:08;4.90;;;3.20;;
73675;SDS011;61975;48.660;10.164;2023-06-14T13:12:33;4.73;;;3.00;;
73675;SDS011;61975;48.660;10.164;2023-06-14T13:14:59;5.28;;;3.00;;
73675;SDS011;61975;48.660;10.164;2023-06-14T13:17:24;4.60;;;3.10;;
73675;SDS011;61975;48.660;10.164;2023-06-14T13:19:50;4.43;;;2.97;;
73675;SDS011;61975;48.660;10.164;2023-06-14T13:22:15;5.23;;;3.03;;
73675;SDS011;61975;48.660;10.164;2023-06-14T13:24:41;5.53;;;3.17;;
73675;SDS011;61975;48.660;10.164;2023-06-14T13:27:06;5.40;;;3.10;;
73675;SDS011;61975;48.660;10.164;2023-06-14T13:29:32;5.50;;;3.27;;
73675;SDS011;61975;48.660;10.164;2023-06-14T13:31:58;4.85;;;3.17;;
73675;SDS011;61975;48.660;10.164;2023-06-14T13:34:24;4.72;;;3.20;;
73675;SDS011;61975;48.660;10.164;2023-06-14T13:36:49;5.40;;;3.00;;
73675;SDS011;61975;48.660;10.164;2023-06-14T13:39:15;5.17;;;3.37;;
73675;SDS011;61975;48.660;10.164;2023-06-14T13:41:41;6.07;;;3.13;;
73675;SDS011;61975;48.660;10.164;2023-06-14T13:44:06;5.50;;;3.20;;
73675;SDS011;61975;48.660;10.164;2023-06-14T13:46:31;4.27;;;2.77;;
73675;SDS011;61975;48.660;10.164;2023-06-14T13:48:57;4.35;;;3.00;;
73675;SDS011;61975;48.660;10.164;2023-06-14T13:51:23;4.80;;;3.20;;
73675;SDS011;61975;48.660;10.164;2023-06-14T13:53:49;5.07;;;3.30;;
73675;SDS011;61975;48.660;10.164;2023-06-14T13:56:15;6.10;;;3.38;;
73675;SDS011;61975;48.660;10.164;2023-06-14T13:58:41;5.87;;;3.33;;
73675;SDS011;61975;48.660;10.164;2023-06-14T14:01:07;5.20;;;3.30;;
73675;SDS011;61975;48.660;10.164;2023-06-14T14:03:33;4.82;;;3.22;;
73675;SDS011;61975;48.660;10.164;2023-06-14T14:06:00;5.67;;;3.33;;
73675;SDS011;61975;48.660;10.164;2023-06-14T14:08:26;5.00;;;3.20;;
73675;SDS011;61975;48.660;10.164;2023-06-14T14:10:52;5.27;;;3.40;;
73675;SDS011;61975;48.660;10.164;2023-06-14T14:13:17;5.13;;;3.30;;
73675;SDS011;61975;48.660;10.164;2023-06-14T14:15:43;7.13;;;3.28;;
73675;SDS011;61975;48.660;10.164;2023-06-14T14:18:08;6.10;;;3.50;;
73675;SDS011;61975;48.660;10.164;2023-06-14T14:20:34;4.10;;;2.90;;
73675;SDS011;61975;48.660;10.164;2023-06-14T14:23:00;4.97;;;3.10;;
73675;SDS011;61975;48.660;10.164;2023-06-14T14:25:25;5.23;;;3.43;;
73675;SDS011;61975;48.660;10.164;2023-06-14T14:27:51;4.75;;;3.03;;
73675;SDS011;61975;48.660;10.164;2023-06-14T14:30:16;6.50;;;3.47;;
73675;SDS011;61975;48.660;10.164;2023-06-14T14:32:43;5.88;;;3.20;;
73675;SDS011;61975;48.660;10.164;2023-06-14T14:35:09;4.70;;;3.20;;
73675;SDS011;61975;48.660;10.164;2023-06-14T14:37:35;4.65;;;3.17;;
73675;SDS011;61975;48.660;10.164;2023-06-14T14:40:00;5.70;;;3.37;;
73675;SDS011;61975;48.660;10.164;2023-06-14T14:42:25;5.03;;;3.30;;